Algoma, Mississippi
Current Conditions -  °F | °C
As of 7:27 PM on Sunday 21 Dec 2014 (Local Time) from KTUP Reporting Station
Broken Clouds Broken Clouds  
Wind Chill: 45°   Ceiling: 2400
Heat Index: 45°   Visibility: 10mi
Dew Point: 39°   Wind: 3mph
Humidity: 80%   Direction: 140°SE
Pressure: 30.02"   Gusts: NA
Location:  34.18°N, 89.03°W
Report Text: KTUP 220127Z 14003KT 10SM BKN024 07/04 A3002 RMK AO2 T00720039
Loading
Personal Weather Stations






























Interactive Weather Map New forecast layout! Learn more

10-Day Weather Forecast

Advertisements
Track Severe Weather on mobile